sensor_id;sensor_type;location;lat;lon;timestamp;pressure;altitude;pressure_sealevel;temperature;humidity
12781;BME280;6454;43.304;24.344;2023-04-25T00:00:08;99410.00;;;13.77;100.00
12781;BME280;6454;43.304;24.344;2023-04-25T00:02:35;99407.16;;;13.73;100.00
12781;BME280;6454;43.304;24.344;2023-04-25T00:05:02;99413.06;;;13.67;100.00
12781;BME280;6454;43.304;24.344;2023-04-25T00:07:31;99390.47;;;13.66;100.00
12781;BME280;6454;43.304;24.344;2023-04-25T00:09:58;99394.34;;;13.56;100.00
12781;BME280;6454;43.304;24.344;2023-04-25T00:12:25;99406.34;;;13.64;100.00
12781;BME280;6454;43.304;24.344;2023-04-25T00:14:53;99403.78;;;13.68;100.00
12781;BME280;6454;43.304;24.344;2023-04-25T00:17:22;99380.59;;;13.53;100.00
12781;BME280;6454;43.304;24.344;2023-04-25T00:19:49;99405.38;;;13.69;100.00
12781;BME280;6454;43.304;24.344;2023-04-25T00:22:16;99408.59;;;13.71;100.00
12781;BME280;6454;43.304;24.344;2023-04-25T00:24:45;99400.88;;;13.73;100.00
12781;BME280;6454;43.304;24.344;2023-04-25T00:27:11;99407.78;;;13.70;100.00
12781;BME280;6454;43.304;24.344;2023-04-25T00:29:38;99405.06;;;13.70;100.00
12781;BME280;6454;43.304;24.344;2023-04-25T00:32:05;99408.72;;;13.74;100.00
12781;BME280;6454;43.304;24.344;2023-04-25T00:34:32;99406.47;;;13.76;100.00
12781;BME280;6454;43.304;24.344;2023-04-25T00:36:59;99406.63;;;13.80;100.00
12781;BME280;6454;43.304;24.344;2023-04-25T00:39:27;99402.16;;;13.75;100.00
12781;BME280;6454;43.304;24.344;2023-04-25T00:41:55;99412.38;;;13.87;98.79
12781;BME280;6454;43.304;24.344;2023-04-25T00:44:22;99417.84;;;13.87;98.18
12781;BME280;6454;43.304;24.344;2023-04-25T00:46:50;99423.28;;;13.87;98.20
12781;BME280;6454;43.304;24.344;2023-04-25T00:49:16;99417.03;;;13.86;96.88
12781;BME280;6454;43.304;24.344;2023-04-25T00:51:43;99418.63;;;13.87;97.08
12781;BME280;6454;43.304;24.344;2023-04-25T00:54:11;99415.75;;;13.92;97.20
12781;BME280;6454;43.304;24.344;2023-04-25T00:56:39;99399.91;;;13.77;97.21
12781;BME280;6454;43.304;24.344;2023-04-25T00:59:09;99408.19;;;13.89;97.25
12781;BME280;6454;43.304;24.344;2023-04-25T01:01:36;99400.66;;;13.86;96.55
12781;BME280;6454;43.304;24.344;2023-04-25T01:04:05;99403.22;;;13.91;95.89
12781;BME280;6454;43.304;24.344;2023-04-25T01:06:31;99403.22;;;13.91;96.05
12781;BME280;6454;43.304;24.344;2023-04-25T01:08:59;99390.56;;;13.95;95.34
12781;BME280;6454;43.304;24.344;2023-04-25T01:11:26;99390.69;;;13.99;94.92
12781;BME280;6454;43.304;24.344;2023-04-25T01:13:53;99388.47;;;13.92;95.32
12781;BME280;6454;43.304;24.344;2023-04-25T01:16:21;99377.72;;;13.96;95.60
12781;BME280;6454;43.304;24.344;2023-04-25T01:18:49;99383.94;;;13.96;95.59
12781;BME280;6454;43.304;24.344;2023-04-25T01:21:18;99383.03;;;13.92;95.45
12781;BME280;6454;43.304;24.344;2023-04-25T01:23:45;99374.38;;;13.90;95.68
12781;BME280;6454;43.304;24.344;2023-04-25T01:26:12;99367.13;;;13.94;95.31
12781;BME280;6454;43.304;24.344;2023-04-25T01:28:39;99369.69;;;13.99;94.64
12781;BME280;6454;43.304;24.344;2023-04-25T01:31:07;99359.41;;;13.96;94.40
12781;BME280;6454;43.304;24.344;2023-04-25T01:33:34;99351.72;;;13.98;94.27
12781;BME280;6454;43.304;24.344;2023-04-25T01:36:01;99351.41;;;13.91;93.95
12781;BME280;6454;43.304;24.344;2023-04-25T01:38:29;99353.38;;;13.91;93.56
12781;BME280;6454;43.304;24.344;2023-04-25T01:40:56;99359.28;;;13.93;93.69
12781;BME280;6454;43.304;24.344;2023-04-25T01:43:23;99346.47;;;13.93;93.87
12781;BME280;6454;43.304;24.344;2023-04-25T01:45:51;99333.66;;;13.85;93.61
12781;BME280;6454;43.304;24.344;2023-04-25T01:48:18;99342.59;;;13.94;93.50
12781;BME280;6454;43.304;24.344;2023-04-25T01:50:45;99347.56;;;13.92;93.78
12781;BME280;6454;43.304;24.344;2023-04-25T01:53:13;99335.75;;;13.88;93.38
12781;BME280;6454;43.304;24.344;2023-04-25T01:55:41;99338.47;;;13.88;93.35
12781;BME280;6454;43.304;24.344;2023-04-25T01:58:08;99324.84;;;13.88;93.62
12781;BME280;6454;43.304;24.344;2023-04-25T02:00:37;99328.69;;;13.87;93.75
12781;BME280;6454;43.304;24.344;2023-04-25T02:03:04;99323.56;;;13.86;93.81
12781;BME280;6454;43.304;24.344;2023-04-25T02:05:34;99310.75;;;13.78;93.91
12781;BME280;6454;43.304;24.344;2023-04-25T02:08:02;99309.16;;;13.77;94.65
12781;BME280;6454;43.304;24.344;2023-04-25T02:10:29;99308.88;;;13.70;94.71
12781;BME280;6454;43.304;24.344;2023-04-25T02:12:58;99309.31;;;13.80;94.00
12781;BME280;6454;43.304;24.344;2023-04-25T02:15:24;99313.81;;;13.76;94.79
12781;BME280;6454;43.304;24.344;2023-04-25T02:17:51;99310.25;;;13.84;94.83
12781;BME280;6454;43.304;24.344;2023-04-25T02:20:20;99307.06;;;13.82;95.27
12781;BME280;6454;43.304;24.344;2023-04-25T02:22:47;99309.97;;;13.77;95.71
12781;BME280;6454;43.304;24.344;2023-04-25T02:25:13;99306.75;;;13.75;95.68
12781;BME280;6454;43.304;24.344;2023-04-25T02:27:41;99301.50;;;13.70;95.91
12781;BME280;6454;43.304;24.344;2023-04-25T02:30:10;99307.13;;;13.65;96.20
12781;BME280;6454;43.304;24.344;2023-04-25T02:32:36;99300.06;;;13.64;96.21
12781;BME280;6454;43.304;24.344;2023-04-25T02:35:04;99297.53;;;13.59;96.47
12781;BME280;6454;43.304;24.344;2023-04-25T02:37:32;99302.97;;;13.59;95.67
12781;BME280;6454;43.304;24.344;2023-04-25T02:39:58;99301.69;;;13.65;96.24
12781;BME280;6454;43.304;24.344;2023-04-25T02:42:25;99301.53;;;13.62;95.92
12781;BME280;6454;43.304;24.344;2023-04-25T02:44:52;99291.28;;;13.59;96.09
12781;BME280;6454;43.304;24.344;2023-04-25T02:47:21;99296.41;;;13.60;96.04
12781;BME280;6454;43.304;24.344;2023-04-25T02:49:48;99301.50;;;13.70;95.46
12781;BME280;6454;43.304;24.344;2023-04-25T02:52:14;99294.16;;;13.62;95.54
12781;BME280;6454;43.304;24.344;2023-04-25T02:54:41;99289.31;;;13.68;95.17
12781;BME280;6454;43.304;24.344;2023-04-25T02:57:08;99277.97;;;13.57;95.98
12781;BME280;6454;43.304;24.344;2023-04-25T02:59:35;99290.22;;;13.51;96.29
12781;BME280;6454;43.304;24.344;2023-04-25T03:02:02;99290.81;;;13.56;96.26
12781;BME280;6454;43.304;24.344;2023-04-25T03:04:30;99284.56;;;13.56;96.31
12781;BME280;6454;43.304;24.344;2023-04-25T03:06:58;99275.50;;;13.43;95.76
12781;BME280;6454;43.304;24.344;2023-04-25T03:09:26;99287.13;;;13.52;95.03
12781;BME280;6454;43.304;24.344;2023-04-25T03:11:53;99289.53;;;13.54;95.36
12781;BME280;6454;43.304;24.344;2023-04-25T03:14:19;99279.94;;;13.48;95.80
12781;BME280;6454;43.304;24.344;2023-04-25T03:16:46;99283.94;;;13.50;95.87
12781;BME280;6454;43.304;24.344;2023-04-25T03:19:13;99281.03;;;13.55;95.53
12781;BME280;6454;43.304;24.344;2023-04-25T03:21:43;99278.59;;;13.63;94.90
12781;BME280;6454;43.304;24.344;2023-04-25T03:24:09;99287.41;;;13.68;94.25
12781;BME280;6454;43.304;24.344;2023-04-25T03:26:37;99285.97;;;13.62;94.37
12781;BME280;6454;43.304;24.344;2023-04-25T03:29:04;99281.19;;;13.59;94.39
12781;BME280;6454;43.304;24.344;2023-04-25T03:31:31;99289.16;;;13.64;94.42
12781;BME280;6454;43.304;24.344;2023-04-25T03:33:57;99285.31;;;13.65;94.27
12781;BME280;6454;43.304;24.344;2023-04-25T03:36:24;99289.97;;;13.65;94.13
12781;BME280;6454;43.304;24.344;2023-04-25T03:38:52;99292.00;;;13.76;93.20
12781;BME280;6454;43.304;24.344;2023-04-25T03:41:19;99298.25;;;13.77;93.15
12781;BME280;6454;43.304;24.344;2023-04-25T03:43:46;99304.53;;;13.69;93.38
12781;BME280;6454;43.304;24.344;2023-04-25T03:46:13;99299.13;;;13.60;94.73
12781;BME280;6454;43.304;24.344;2023-04-25T03:48:40;99304.75;;;13.55;94.52
12781;BME280;6454;43.304;24.344;2023-04-25T03:51:06;99304.44;;;13.56;94.95
12781;BME280;6454;43.304;24.344;2023-04-25T03:53:33;99304.59;;;13.60;94.63
12781;BME280;6454;43.304;24.344;2023-04-25T03:56:01;99307.31;;;13.60;94.62
12781;BME280;6454;43.304;24.344;2023-04-25T03:58:28;99295.94;;;13.58;94.82
12781;BME280;6454;43.304;24.344;2023-04-25T04:00:55;99301.84;;;13.60;94.42
12781;BME280;6454;43.304;24.344;2023-04-25T04:03:21;99306.31;;;13.65;94.76
12781;BME280;6454;43.304;24.344;2023-04-25T04:05:48;99298.97;;;13.56;94.83
12781;BME280;6454;43.304;24.344;2023-04-25T04:08:15;99303.78;;;13.60;95.12
12781;BME280;6454;43.304;24.344;2023-04-25T04:10:42;99305.50;;;13.64;94.29
12781;BME280;6454;43.304;24.344;2023-04-25T04:13:11;99306.94;;;13.70;93.90
12781;BME280;6454;43.304;24.344;2023-04-25T04:15:37;99315.78;;;13.67;93.85
12781;BME280;6454;43.304;24.344;2023-04-25T04:18:04;99320.28;;;13.63;93.60
12781;BME280;6454;43.304;24.344;2023-04-25T04:20:31;99325.06;;;13.66;93.78
12781;BME280;6454;43.304;24.344;2023-04-25T04:22:58;99314.16;;;13.66;93.29
12781;BME280;6454;43.304;24.344;2023-04-25T04:25:25;99316.69;;;13.71;92.24
12781;BME280;6454;43.304;24.344;2023-04-25T04:27:51;99323.94;;;13.76;92.37
12781;BME280;6454;43.304;24.344;2023-04-25T04:30:21;99314.28;;;13.78;92.43
12781;BME280;6454;43.304;24.344;2023-04-25T04:32:49;99319.25;;;13.76;92.44
12781;BME280;6454;43.304;24.344;2023-04-25T04:35:16;99311.41;;;13.75;92.90
12781;BME280;6454;43.304;24.344;2023-04-25T04:37:43;99314.47;;;13.73;92.23
12781;BME280;6454;43.304;24.344;2023-04-25T04:40:11;99311.06;;;13.76;92.67
12781;BME280;6454;43.304;24.344;2023-04-25T04:42:40;99317.94;;;13.82;92.92
12781;BME280;6454;43.304;24.344;2023-04-25T04:45:08;99314.06;;;13.92;92.13
12781;BME280;6454;43.304;24.344;2023-04-25T04:47:37;99288.19;;;13.69;92.15
12781;BME280;6454;43.304;24.344;2023-04-25T04:50:05;99314.03;;;14.00;91.70
12781;BME280;6454;43.304;24.344;2023-04-25T04:52:32;99314.31;;;14.07;91.27
12781;BME280;6454;43.304;24.344;2023-04-25T04:54:59;99312.78;;;14.18;90.48
12781;BME280;6454;43.304;24.344;2023-04-25T04:57:26;99316.28;;;14.28;90.46
12781;BME280;6454;43.304;24.344;2023-04-25T04:59:53;99313.31;;;14.41;89.85
12781;BME280;6454;43.304;24.344;2023-04-25T05:02:20;99316.00;;;14.50;88.43
12781;BME280;6454;43.304;24.344;2023-04-25T05:04:48;99317.38;;;14.56;88.11
12781;BME280;6454;43.304;24.344;2023-04-25T05:07:17;99319.44;;;14.59;87.01
12781;BME280;6454;43.304;24.344;2023-04-25T05:09:43;99318.44;;;14.63;86.66
12781;BME280;6454;43.304;24.344;2023-04-25T05:12:10;99322.13;;;14.67;85.45
12781;BME280;6454;43.304;24.344;2023-04-25T05:14:37;99324.66;;;14.72;86.02
12781;BME280;6454;43.304;24.344;2023-04-25T05:17:04;99313.78;;;14.84;85.78
12781;BME280;6454;43.304;24.344;2023-04-25T05:19:33;99325.41;;;14.94;84.38
12781;BME280;6454;43.304;24.344;2023-04-25T05:22:02;99322.28;;;15.04;85.07
12781;BME280;6454;43.304;24.344;2023-04-25T05:24:29;99283.34;;;14.74;83.39
12781;BME280;6454;43.304;24.344;2023-04-25T05:26:57;99332.25;;;15.20;83.68
12781;BME280;6454;43.304;24.344;2023-04-25T05:29:24;99336.81;;;15.28;82.66
12781;BME280;6454;43.304;24.344;2023-04-25T05:31:50;99248.38;;;14.88;81.98
12781;BME280;6454;43.304;24.344;2023-04-25T05:34:18;99345.59;;;15.55;80.58
12781;BME280;6454;43.304;24.344;2023-04-25T05:36:45;99342.06;;;15.66;80.76
12781;BME280;6454;43.304;24.344;2023-04-25T05:39:15;99336.72;;;15.70;81.10
12781;BME280;6454;43.304;24.344;2023-04-25T05:41:42;99331.03;;;15.75;79.99
12781;BME280;6454;43.304;24.344;2023-04-25T05:44:08;99327.72;;;15.81;78.11
12781;BME280;6454;43.304;24.344;2023-04-25T05:46:35;99334.22;;;15.89;78.98
12781;BME280;6454;43.304;24.344;2023-04-25T05:49:02;99327.41;;;15.95;78.52
12781;BME280;6454;43.304;24.344;2023-04-25T05:51:29;99333.31;;;16.09;78.49
12781;BME280;6454;43.304;24.344;2023-04-25T05:53:56;99339.94;;;16.20;79.00
12781;BME280;6454;43.304;24.344;2023-04-25T05:56:25;99338.56;;;16.26;77.34
12781;BME280;6454;43.304;24.344;2023-04-25T05:58:52;99331.59;;;16.29;75.09
12781;BME280;6454;43.304;24.344;2023-04-25T06:01:19;99291.69;;;16.16;75.82
12781;BME280;6454;43.304;24.344;2023-04-25T06:03:46;99327.34;;;16.55;75.45
12781;BME280;6454;43.304;24.344;2023-04-25T06:06:13;99328.13;;;16.68;75.93
12781;BME280;6454;43.304;24.344;2023-04-25T06:08:40;99333.81;;;16.87;75.64
12781;BME280;6454;43.304;24.344;2023-04-25T06:11:07;99329.72;;;17.09;76.05
12781;BME280;6454;43.304;24.344;2023-04-25T06:13:35;99179.91;;;16.02;74.84
12781;BME280;6454;43.304;24.344;2023-04-25T06:16:02;99312.63;;;17.00;72.86
12781;BME280;6454;43.304;24.344;2023-04-25T06:18:29;99256.06;;;16.64;72.12
12781;BME280;6454;43.304;24.344;2023-04-25T06:20:58;99321.59;;;17.12;72.38
12781;BME280;6454;43.304;24.344;2023-04-25T06:23:25;99331.88;;;17.31;71.17
12781;BME280;6454;43.304;24.344;2023-04-25T06:25:52;99337.13;;;17.36;71.75
12781;BME280;6454;43.304;24.344;2023-04-25T06:28:19;99340.59;;;17.49;71.82
12781;BME280;6454;43.304;24.344;2023-04-25T06:30:48;99344.53;;;17.63;70.69
12781;BME280;6454;43.304;24.344;2023-04-25T06:33:15;99342.94;;;17.78;69.86
12781;BME280;6454;43.304;24.344;2023-04-25T06:35:42;99339.34;;;17.89;69.95
12781;BME280;6454;43.304;24.344;2023-04-25T06:38:09;99336.22;;;18.07;70.78
12781;BME280;6454;43.304;24.344;2023-04-25T06:40:36;99251.25;;;17.48;68.46
12781;BME280;6454;43.304;24.344;2023-04-25T06:43:03;99340.75;;;18.15;69.30
12781;BME280;6454;43.304;24.344;2023-04-25T06:45:30;99346.41;;;18.22;68.80
12781;BME280;6454;43.304;24.344;2023-04-25T06:47:58;99353.63;;;18.30;68.78
12781;BME280;6454;43.304;24.344;2023-04-25T06:50:25;99348.13;;;18.30;68.92
12781;BME280;6454;43.304;24.344;2023-04-25T06:52:52;99340.53;;;18.23;69.63
12781;BME280;6454;43.304;24.344;2023-04-25T06:55:18;99346.56;;;18.13;67.96
12781;BME280;6454;43.304;24.344;2023-04-25T06:57:45;99349.78;;;17.99;67.19
12781;BME280;6454;43.304;24.344;2023-04-25T07:00:13;99355.72;;;18.01;68.35
12781;BME280;6454;43.304;24.344;2023-04-25T07:02:40;99347.81;;;18.00;67.34
12781;BME280;6454;43.304;24.344;2023-04-25T07:05:10;99352.06;;;17.97;69.41
12781;BME280;6454;43.304;24.344;2023-04-25T07:07:37;99352.06;;;17.97;67.87
12781;BME280;6454;43.304;24.344;2023-04-25T07:10:04;99347.63;;;18.09;68.95
12781;BME280;6454;43.304;24.344;2023-04-25T07:12:31;99320.63;;;17.95;67.30
12781;BME280;6454;43.304;24.344;2023-04-25T07:14:59;99350.44;;;18.28;67.31
12781;BME280;6454;43.304;24.344;2023-04-25T07:17:31;99354.09;;;18.32;66.15
12781;BME280;6454;43.304;24.344;2023-04-25T07:19:58;99356.09;;;18.50;66.09
12781;BME280;6454;43.304;24.344;2023-04-25T07:22:26;99347.00;;;18.46;65.96
12781;BME280;6454;43.304;24.344;2023-04-25T07:24:54;99353.34;;;18.50;64.79
12781;BME280;6454;43.304;24.344;2023-04-25T07:27:21;99358.56;;;18.55;65.37
12781;BME280;6454;43.304;24.344;2023-04-25T07:29:47;99352.47;;;18.62;64.53
12781;BME280;6454;43.304;24.344;2023-04-25T07:32:14;99357.69;;;18.67;66.02
12781;BME280;6454;43.304;24.344;2023-04-25T07:34:41;99351.44;;;18.70;64.00
12781;BME280;6454;43.304;24.344;2023-04-25T07:37:08;99337.94;;;18.61;64.63
12781;BME280;6454;43.304;24.344;2023-04-25T07:39:36;99338.00;;;18.65;64.66
12781;BME280;6454;43.304;24.344;2023-04-25T07:42:03;99338.09;;;18.88;65.23
12781;BME280;6454;43.304;24.344;2023-04-25T07:44:33;99338.03;;;19.03;65.73
12781;BME280;6454;43.304;24.344;2023-04-25T07:47:04;99340.19;;;19.13;65.20
12781;BME280;6454;43.304;24.344;2023-04-25T07:49:32;99336.84;;;19.23;63.47
12781;BME280;6454;43.304;24.344;2023-04-25T07:52:00;99335.72;;;19.44;65.32
12781;BME280;6454;43.304;24.344;2023-04-25T07:54:26;99338.09;;;19.68;63.20
12781;BME280;6454;43.304;24.344;2023-04-25T07:56:55;99337.91;;;19.80;62.84
12781;BME280;6454;43.304;24.344;2023-04-25T07:59:22;99352.25;;;19.66;62.11
12781;BME280;6454;43.304;24.344;2023-04-25T08:01:48;99343.78;;;19.56;62.54
12781;BME280;6454;43.304;24.344;2023-04-25T08:04:15;99107.41;;;17.76;62.34
12781;BME280;6454;43.304;24.344;2023-04-25T08:06:42;99339.41;;;19.74;64.29
12781;BME280;6454;43.304;24.344;2023-04-25T08:09:11;99341.28;;;19.70;59.90
12781;BME280;6454;43.304;24.344;2023-04-25T08:11:38;99349.28;;;19.56;60.33
12781;BME280;6454;43.304;24.344;2023-04-25T08:14:06;99348.75;;;19.47;57.91
12781;BME280;6454;43.304;24.344;2023-04-25T08:16:33;99344.59;;;19.37;59.93
12781;BME280;6454;43.304;24.344;2023-04-25T08:19:00;99354.59;;;19.45;60.42
12781;BME280;6454;43.304;24.344;2023-04-25T08:21:27;99353.50;;;19.50;61.92
12781;BME280;6454;43.304;24.344;2023-04-25T08:23:54;99325.84;;;19.43;61.61
12781;BME280;6454;43.304;24.344;2023-04-25T08:26:21;99353.75;;;19.64;60.40
12781;BME280;6454;43.304;24.344;2023-04-25T08:28:48;99348.88;;;19.76;59.32
12781;BME280;6454;43.304;24.344;2023-04-25T08:31:17;99258.59;;;18.98;58.44
12781;BME280;6454;43.304;24.344;2023-04-25T08:33:44;99349.91;;;19.68;58.91
12781;BME280;6454;43.304;24.344;2023-04-25T08:36:11;99352.41;;;19.54;58.15
12781;BME280;6454;43.304;24.344;2023-04-25T08:38:38;99352.72;;;19.72;59.19
12781;BME280;6454;43.304;24.344;2023-04-25T08:41:05;99351.75;;;19.61;57.72
12781;BME280;6454;43.304;24.344;2023-04-25T08:43:34;99355.09;;;19.51;58.04
12781;BME280;6454;43.304;24.344;2023-04-25T08:46:01;99233.03;;;18.75;59.44
12781;BME280;6454;43.304;24.344;2023-04-25T08:48:32;99343.44;;;19.38;57.98
12781;BME280;6454;43.304;24.344;2023-04-25T08:51:02;99348.72;;;19.27;57.35
12781;BME280;6454;43.304;24.344;2023-04-25T08:53:31;99349.25;;;19.14;56.26
12781;BME280;6454;43.304;24.344;2023-04-25T08:56:00;99349.16;;;19.10;56.39
12781;BME280;6454;43.304;24.344;2023-04-25T08:58:28;99336.72;;;18.97;57.43
12781;BME280;6454;43.304;24.344;2023-04-25T09:00:55;99351.19;;;19.13;59.84
12781;BME280;6454;43.304;24.344;2023-04-25T09:03:22;99356.25;;;19.11;61.47
12781;BME280;6454;43.304;24.344;2023-04-25T09:05:51;99326.53;;;18.79;62.79
12781;BME280;6454;43.304;24.344;2023-04-25T09:08:18;99363.53;;;18.85;63.86
12781;BME280;6454;43.304;24.344;2023-04-25T09:10:45;99352.97;;;18.67;62.17
12781;BME280;6454;43.304;24.344;2023-04-25T09:13:14;99356.34;;;18.61;65.08
12781;BME280;6454;43.304;24.344;2023-04-25T09:15:47;99353.44;;;18.54;66.65
12781;BME280;6454;43.304;24.344;2023-04-25T09:18:22;99274.53;;;18.00;66.47
12781;BME280;6454;43.304;24.344;2023-04-25T09:20:52;99350.97;;;18.33;66.70
12781;BME280;6454;43.304;24.344;2023-04-25T09:23:20;99357.81;;;18.24;66.66
12781;BME280;6454;43.304;24.344;2023-04-25T09:25:47;99356.47;;;18.18;67.83
12781;BME280;6454;43.304;24.344;2023-04-25T09:28:14;99349.94;;;18.07;67.71
12781;BME280;6454;43.304;24.344;2023-04-25T09:30:41;99071.88;;;16.24;68.92
12781;BME280;6454;43.304;24.344;2023-04-25T09:33:10;99346.41;;;18.22;68.34
12781;BME280;6454;43.304;24.344;2023-04-25T09:35:38;99345.50;;;18.49;70.17
12781;BME280;6454;43.304;24.344;2023-04-25T09:38:11;99090.19;;;17.10;68.78
12781;BME280;6454;43.304;24.344;2023-04-25T09:40:41;99329.34;;;19.01;68.31
12781;BME280;6454;43.304;24.344;2023-04-25T09:43:09;99331.88;;;19.10;66.81
12781;BME280;6454;43.304;24.344;2023-04-25T09:45:41;99334.28;;;19.11;64.03
12781;BME280;6454;43.304;24.344;2023-04-25T09:48:11;99330.63;;;19.26;64.41
12781;BME280;6454;43.304;24.344;2023-04-25T09:50:41;99348.44;;;19.52;64.04
12781;BME280;6454;43.304;24.344;2023-04-25T09:53:09;99355.84;;;19.70;64.91
12781;BME280;6454;43.304;24.344;2023-04-25T09:55:38;99340.25;;;19.78;61.65
12781;BME280;6454;43.304;24.344;2023-04-25T09:58:05;99331.75;;;19.86;63.08
12781;BME280;6454;43.304;24.344;2023-04-25T10:00:33;99333.38;;;20.14;63.03
12781;BME280;6454;43.304;24.344;2023-04-25T10:03:06;99173.53;;;19.05;59.06
12781;BME280;6454;43.304;24.344;2023-04-25T10:05:34;99333.16;;;19.77;59.32
12781;BME280;6454;43.304;24.344;2023-04-25T10:08:03;99334.56;;;19.67;61.79
12781;BME280;6454;43.304;24.344;2023-04-25T10:10:33;99292.00;;;19.19;62.99
12781;BME280;6454;43.304;24.344;2023-04-25T10:13:04;99324.84;;;19.32;64.84
12781;BME280;6454;43.304;24.344;2023-04-25T10:15:33;99317.34;;;19.09;66.79
12781;BME280;6454;43.304;24.344;2023-04-25T10:18:00;99320.50;;;18.92;67.34
12781;BME280;6454;43.304;24.344;2023-04-25T10:20:28;99329.03;;;18.87;70.21
12781;BME280;6454;43.304;24.344;2023-04-25T10:22:58;99336.19;;;18.73;71.76
12781;BME280;6454;43.304;24.344;2023-04-25T10:25:30;99328.88;;;18.61;73.30
12781;BME280;6454;43.304;24.344;2023-04-25T10:27:59;99320.13;;;18.40;71.18
12781;BME280;6454;43.304;24.344;2023-04-25T10:30:26;99315.44;;;18.40;73.46
12781;BME280;6454;43.304;24.344;2023-04-25T10:32:54;99310.44;;;18.27;72.58
12781;BME280;6454;43.304;24.344;2023-04-25T10:35:25;99312.91;;;18.32;69.03
12781;BME280;6454;43.304;24.344;2023-04-25T10:38:00;99315.72;;;18.35;70.08
12781;BME280;6454;43.304;24.344;2023-04-25T10:40:29;99310.75;;;18.41;72.91
12781;BME280;6454;43.304;24.344;2023-04-25T10:43:35;99297.72;;;18.53;69.19
12781;BME280;6454;43.304;24.344;2023-04-25T10:46:12;99296.34;;;18.63;66.96
12781;BME280;6454;43.304;24.344;2023-04-25T10:48:45;99270.28;;;18.38;66.44
12781;BME280;6454;43.304;24.344;2023-04-25T10:51:16;99289.00;;;18.67;66.90
12781;BME280;6454;43.304;24.344;2023-04-25T10:53:44;99284.28;;;18.67;65.31
12781;BME280;6454;43.304;24.344;2023-04-25T10:56:11;99291.94;;;18.78;65.28
12781;BME280;6454;43.304;24.344;2023-04-25T10:58:44;99228.75;;;18.39;66.17
12781;BME280;6454;43.304;24.344;2023-04-25T11:01:12;99289.66;;;18.99;65.11
12781;BME280;6454;43.304;24.344;2023-04-25T11:03:43;99281.44;;;19.21;66.95
12781;BME280;6454;43.304;24.344;2023-04-25T11:06:17;99282.72;;;19.47;66.40
12781;BME280;6454;43.304;24.344;2023-04-25T11:08:48;99161.00;;;18.85;64.30
12781;BME280;6454;43.304;24.344;2023-04-25T11:11:15;99278.09;;;19.77;61.70
12781;BME280;6454;43.304;24.344;2023-04-25T11:13:42;99280.78;;;19.96;60.33
12781;BME280;6454;43.304;24.344;2023-04-25T11:16:11;99281.00;;;20.10;59.86
12781;BME280;6454;43.304;24.344;2023-04-25T11:18:41;99257.91;;;20.18;62.23
12781;BME280;6454;43.304;24.344;2023-04-25T11:21:08;99282.41;;;20.23;58.47
12781;BME280;6454;43.304;24.344;2023-04-25T11:23:35;99283.00;;;20.36;59.15
12781;BME280;6454;43.304;24.344;2023-04-25T11:26:02;99278.00;;;20.45;56.50
12781;BME280;6454;43.304;24.344;2023-04-25T11:28:29;99275.16;;;20.38;57.04
12781;BME280;6454;43.304;24.344;2023-04-25T11:30:56;99280.41;;;20.46;57.87
12781;BME280;6454;43.304;24.344;2023-04-25T11:33:24;99276.31;;;20.67;59.49
12781;BME280;6454;43.304;24.344;2023-04-25T11:35:53;99278.47;;;20.50;58.11
12781;BME280;6454;43.304;24.344;2023-04-25T11:38:21;99282.25;;;20.39;57.94
12781;BME280;6454;43.304;24.344;2023-04-25T11:40:51;99275.00;;;20.27;57.76
12781;BME280;6454;43.304;24.344;2023-04-25T11:43:20;99277.84;;;20.08;57.80
12781;BME280;6454;43.304;24.344;2023-04-25T11:45:48;99274.50;;;19.96;58.65
12781;BME280;6454;43.304;24.344;2023-04-25T11:48:16;99278.25;;;19.84;57.35
12781;BME280;6454;43.304;24.344;2023-04-25T11:50:44;99277.69;;;19.75;58.49
12781;BME280;6454;43.304;24.344;2023-04-25T11:53:11;99281.94;;;19.69;59.08
12781;BME280;6454;43.304;24.344;2023-04-25T11:55:38;99270.50;;;19.67;60.62
12781;BME280;6454;43.304;24.344;2023-04-25T11:58:05;99272.44;;;19.44;59.50
12781;BME280;6454;43.304;24.344;2023-04-25T12:00:34;98942.25;;;17.29;59.69
12781;BME280;6454;43.304;24.344;2023-04-25T12:03:01;99262.66;;;19.27;60.80
12781;BME280;6454;43.304;24.344;2023-04-25T12:05:30;99261.41;;;19.21;59.40
12781;BME280;6454;43.304;24.344;2023-04-25T12:08:09;99250.09;;;19.26;59.80
12781;BME280;6454;43.304;24.344;2023-04-25T12:10:37;99183.22;;;18.77;60.41
12781;BME280;6454;43.304;24.344;2023-04-25T12:13:18;99208.13;;;18.87;60.98
12781;BME280;6454;43.304;24.344;2023-04-25T12:15:45;99242.97;;;19.02;61.76
12781;BME280;6454;43.304;24.344;2023-04-25T12:18:12;99197.34;;;18.56;61.75
12781;BME280;6454;43.304;24.344;2023-04-25T12:20:38;99298.09;;;19.09;62.37
12781;BME280;6454;43.304;24.344;2023-04-25T12:23:07;99353.72;;;18.84;62.58
12781;BME280;6454;43.304;24.344;2023-04-25T12:25:35;99393.94;;;17.94;60.32
12781;BME280;6454;43.304;24.344;2023-04-25T12:28:12;99382.66;;;17.13;64.13
12781;BME280;6454;43.304;24.344;2023-04-25T12:30:55;99400.69;;;16.26;70.02
12781;BME280;6454;43.304;24.344;2023-04-25T12:33:23;99321.66;;;15.19;73.79
12781;BME280;6454;43.304;24.344;2023-04-25T12:35:50;99402.53;;;15.32;76.79
12781;BME280;6454;43.304;24.344;2023-04-25T12:38:27;99407.28;;;15.02;79.66
12781;BME280;6454;43.304;24.344;2023-04-25T12:40:55;99403.34;;;14.70;82.59
12781;BME280;6454;43.304;24.344;2023-04-25T12:43:22;99067.34;;;12.31;84.62
12781;BME280;6454;43.304;24.344;2023-04-25T12:45:50;99407.53;;;14.39;86.77
12781;BME280;6454;43.304;24.344;2023-04-25T12:48:17;99396.34;;;14.32;87.58
12781;BME280;6454;43.304;24.344;2023-04-25T12:50:44;99399.69;;;14.29;88.82
12781;BME280;6454;43.304;24.344;2023-04-25T12:53:14;99384.66;;;14.23;89.23
12781;BME280;6454;43.304;24.344;2023-04-25T12:55:42;99391.38;;;14.25;90.13
12781;BME280;6454;43.304;24.344;2023-04-25T12:58:11;99392.50;;;14.33;90.47
12781;BME280;6454;43.304;24.344;2023-04-25T13:00:38;99392.31;;;14.38;90.86
12781;BME280;6454;43.304;24.344;2023-04-25T13:03:05;99389.69;;;14.41;90.95